Time;durP1;ratioP1;P1;durP2;ratioP2;P2;SDS_P1;SDS_P2;PMS_P1;PMS_P2;Temp;Humidity;BMP_temperature;BMP_pressure;BME280_temperature;BME280_humidity;BME280_pressure;Samples;Min_cycle;Max_cycle;Signal;HPM_P1;HPM_P2
2023/07/07 00:01:52;;;;;;;8.23;7.73;;;20.60;11.20;;;;;;4991740;28;20228;-59
2023/07/07 00:04:18;;;;;;;7.47;7.07;;;20.60;11.30;;;;;;4991869;28;20422;-59
2023/07/07 00:06:44;;;;;;;8.20;7.60;;;20.60;11.30;;;;;;4990791;28;20174;-59
2023/07/07 00:09:09;;;;;;;8.07;7.47;;;20.60;11.30;;;;;;4991700;28;20186;-60
2023/07/07 00:11:36;;;;;;;7.23;6.83;;;20.60;11.20;;;;;;4991681;28;20417;-59
2023/07/07 00:14:02;;;;;;;8.63;8.03;;;20.60;11.40;;;;;;4991861;28;20178;-59
2023/07/07 00:16:28;;;;;;;7.83;7.43;;;20.60;11.50;;;;;;4991719;28;20925;-60
2023/07/07 00:18:54;;;;;;;8.13;7.70;;;20.60;11.50;;;;;;4991207;28;20461;-58
2023/07/07 00:21:24;;;;;;;7.80;7.40;;;20.50;11.50;;;;;;4991643;28;20209;-59
2023/07/07 00:23:53;;;;;;;7.70;7.30;;;20.50;11.40;;;;;;4991478;28;20413;-59
2023/07/07 00:26:19;;;;;;;7.47;7.07;;;20.50;11.40;;;;;;4991470;28;20421;-59
2023/07/07 00:28:45;;;;;;;7.63;7.23;;;20.50;11.50;;;;;;4991335;28;20788;-59
2023/07/07 00:31:11;;;;;;;7.53;7.13;;;20.60;11.60;;;;;;4991434;28;20420;-59
2023/07/07 00:33:36;;;;;;;8.53;7.90;;;20.50;11.60;;;;;;4991491;28;20178;-59
2023/07/07 00:36:02;;;;;;;7.83;7.43;;;20.50;11.60;;;;;;4991366;28;20174;-58
2023/07/07 00:38:28;;;;;;;6.77;6.47;;;20.50;11.60;;;;;;4991201;28;20178;-59
2023/07/07 00:40:54;;;;;;;7.57;7.00;;;20.50;11.60;;;;;;4991134;28;20736;-59
2023/07/07 00:43:21;;;;;;;7.93;7.53;;;20.50;12.20;;;;;;4991372;28;20241;-59
2023/07/07 00:45:46;;;;;;;8.17;7.77;;;20.50;11.70;;;;;;4991198;28;20174;-59
2023/07/07 00:48:23;;;;;;;7.97;7.40;;;20.40;12.00;;;;;;5007340;28;20997;-59
2023/07/07 00:50:56;;;;;;;7.63;7.13;;;20.40;12.20;;;;;;4991247;28;20526;-59
2023/07/07 00:53:23;;;;;;;7.67;7.17;;;20.40;12.30;;;;;;4991576;28;20447;-57
2023/07/07 00:55:53;;;;;;;7.27;6.87;;;20.30;12.50;;;;;;4991120;28;20938;-58
2023/07/07 00:58:21;;;;;;;8.50;7.73;;;20.30;12.50;;;;;;4991058;28;20836;-58
2023/07/07 01:00:53;;;;;;;7.83;7.27;;;20.30;12.50;;;;;;4991065;28;20468;-59
2023/07/07 01:03:24;;;;;;;7.63;7.13;;;20.30;12.50;;;;;;4991215;28;20456;-59
2023/07/07 01:05:53;;;;;;;8.23;7.73;;;20.30;12.50;;;;;;4991258;28;20512;-58
2023/07/07 01:08:19;;;;;;;7.83;7.23;;;20.30;12.60;;;;;;4990944;28;20413;-59
2023/07/07 01:10:45;;;;;;;8.23;7.73;;;20.30;12.60;;;;;;4991049;28;20461;-59
2023/07/07 01:13:11;;;;;;;7.90;7.40;;;20.30;12.60;;;;;;4991006;28;20427;-59
2023/07/07 01:15:52;;;;;;;8.37;7.87;;;20.30;12.40;;;;;;4990992;28;20514;-58
2023/07/07 01:18:32;;;;;;;7.80;7.40;;;20.30;12.50;;;;;;4992385;28;20424;-59
2023/07/07 01:21:12;;;;;;;8.67;8.10;;;20.20;12.50;;;;;;5011041;28;20473;-59
2023/07/07 01:23:43;;;;;;;7.50;7.10;;;20.20;12.80;;;;;;4995045;28;20782;-59
2023/07/07 01:26:19;;;;;;;8.03;7.53;;;20.20;13.20;;;;;;5007084;28;20428;-58
2023/07/07 01:29:06;;;;;;;8.10;7.70;;;20.10;13.10;;;;;;4975075;28;20512;-58
2023/07/07 01:31:50;;;;;;;7.47;7.07;;;20.20;13.20;;;;;;4975311;28;20422;-58
2023/07/07 01:34:16;;;;;;;8.67;8.07;;;20.10;13.30;;;;;;4975323;28;20436;-58
2023/07/07 01:36:42;;;;;;;8.97;8.27;;;20.10;13.60;;;;;;4975087;28;20436;-58
2023/07/07 01:39:12;;;;;;;7.87;7.47;;;20.00;13.60;;;;;;4976317;28;20836;-58
2023/07/07 01:41:40;;;;;;;8.87;7.97;;;20.00;13.50;;;;;;4974973;28;20465;-58
2023/07/07 01:44:19;;;;;;;8.00;7.60;;;20.10;13.80;;;;;;4975191;28;20880;-58
2023/07/07 01:46:58;;;;;;;8.43;7.83;;;20.00;13.90;;;;;;4975184;28;20444;-57
2023/07/07 01:49:26;;;;;;;8.57;7.97;;;19.90;14.00;;;;;;4974670;28;20481;-59
2023/07/07 01:51:56;;;;;;;7.83;7.43;;;19.90;14.00;;;;;;4975125;28;20466;-60
2023/07/07 01:54:22;;;;;;;8.90;8.40;;;19.90;14.10;;;;;;4975174;28;20425;-60
2023/07/07 01:56:49;;;;;;;8.70;8.20;;;19.90;14.20;;;;;;4975142;28;20422;-60
2023/07/07 01:59:16;;;;;;;8.60;8.00;;;19.90;14.40;;;;;;4975089;28;20816;-59
2023/07/07 02:01:44;;;;;;;8.53;7.90;;;19.90;14.30;;;;;;4974953;28;20422;-59
2023/07/07 02:04:09;;;;;;;8.60;8.10;;;19.90;14.50;;;;;;4974952;28;20425;-59
2023/07/07 02:06:35;;;;;;;8.23;7.73;;;19.80;14.60;;;;;;4975037;28;20414;-58
2023/07/07 02:09:00;;;;;;;8.37;7.87;;;19.90;14.80;;;;;;4974549;28;20190;-58
2023/07/07 02:11:26;;;;;;;8.37;7.90;;;19.80;14.80;;;;;;4974437;28;20189;-58
2023/07/07 02:13:52;;;;;;;8.50;8.00;;;19.80;14.80;;;;;;4974298;28;20174;-58
2023/07/07 02:16:18;;;;;;;8.33;7.83;;;19.80;14.90;;;;;;4974344;28;20179;-58
2023/07/07 02:18:48;;;;;;;8.20;7.70;;;19.80;15.10;;;;;;4974209;28;20895;-58
2023/07/07 02:21:18;;;;;;;8.77;8.27;;;19.80;15.10;;;;;;4974358;28;20179;-58
2023/07/07 02:23:44;;;;;;;9.03;8.57;;;19.80;15.20;;;;;;4974075;28;20421;-58
2023/07/07 02:26:11;;;;;;;8.40;7.97;;;19.80;15.20;;;;;;4974244;28;20410;-58
2023/07/07 02:28:37;;;;;;;9.00;8.40;;;19.80;15.20;;;;;;4973849;28;20965;-58
2023/07/07 02:31:02;;;;;;;9.00;8.60;;;19.80;15.10;;;;;;4973526;28;20453;-58
2023/07/07 02:33:31;;;;;;;8.47;8.00;;;19.80;15.30;;;;;;4975522;28;20179;-58
2023/07/07 02:36:06;;;;;;;9.23;8.73;;;19.70;15.40;;;;;;4974149;28;20293;-58
2023/07/07 02:38:32;;;;;;;9.40;8.70;;;19.70;15.40;;;;;;4975575;28;20402;-58
2023/07/07 02:40:58;;;;;;;9.00;8.50;;;19.70;15.70;;;;;;4974131;28;20461;-58
2023/07/07 02:43:25;;;;;;;9.10;8.50;;;19.70;15.70;;;;;;4974201;28;21087;-58
2023/07/07 02:45:51;;;;;;;9.30;8.80;;;19.70;15.90;;;;;;4974118;28;20831;-58
2023/07/07 02:48:20;;;;;;;9.70;8.80;;;19.70;16.00;;;;;;4973855;28;20403;-59
2023/07/07 02:51:00;;;;;;;8.53;8.03;;;19.70;15.90;;;;;;4974006;28;20426;-59
2023/07/07 02:53:28;;;;;;;9.40;8.90;;;19.70;15.90;;;;;;4973695;28;20414;-60
2023/07/07 02:55:54;;;;;;;9.10;8.50;;;19.60;16.00;;;;;;4973526;28;20418;-58
2023/07/07 02:58:20;;;;;;;9.00;8.43;;;19.60;15.90;;;;;;4973439;28;20913;-58
2023/07/07 03:00:46;;;;;;;9.50;8.90;;;19.60;16.00;;;;;;4973345;28;20830;-58
2023/07/07 03:03:12;;;;;;;9.10;8.50;;;19.60;16.00;;;;;;4973164;28;20410;-59
2023/07/07 03:05:38;;;;;;;8.30;7.90;;;19.60;16.20;;;;;;4973186;28;20510;-59
2023/07/07 03:08:04;;;;;;;9.40;8.80;;;19.60;16.40;;;;;;4973253;28;20497;-59
2023/07/07 03:10:34;;;;;;;9.10;8.53;;;19.60;16.50;;;;;;4973608;28;20185;-58
2023/07/07 03:13:00;;;;;;;8.80;8.20;;;19.50;16.40;;;;;;4973141;28;20425;-58
2023/07/07 03:15:38;;;;;;;8.87;8.47;;;19.50;16.40;;;;;;4973386;28;20418;-58
2023/07/07 03:18:09;;;;;;;8.70;8.20;;;19.50;16.50;;;;;;4972606;28;20418;-58
2023/07/07 03:20:35;;;;;;;9.77;9.13;;;19.50;16.40;;;;;;4973097;28;20465;-58
2023/07/07 03:23:01;;;;;;;8.83;8.33;;;19.50;16.50;;;;;;4973194;28;20417;-57
2023/07/07 03:25:28;;;;;;;8.57;8.17;;;19.40;16.50;;;;;;4972695;28;20481;-58
2023/07/07 03:27:53;;;;;;;9.70;9.20;;;19.50;16.70;;;;;;4973314;28;20398;-58
2023/07/07 03:30:19;;;;;;;10.17;9.50;;;19.40;16.60;;;;;;4972645;28;20981;-58
2023/07/07 03:32:45;;;;;;;9.30;8.70;;;19.40;16.80;;;;;;4972226;28;20426;-58
2023/07/07 03:35:10;;;;;;;9.33;8.83;;;19.40;16.90;;;;;;4973906;28;20181;-59
2023/07/07 03:37:37;;;;;;;9.37;8.73;;;19.30;17.00;;;;;;4972472;28;20179;-58
2023/07/07 03:40:06;;;;;;;9.80;9.27;;;19.30;16.90;;;;;;4972509;28;20293;-57
2023/07/07 03:42:32;;;;;;;9.07;8.67;;;19.30;16.90;;;;;;4972772;28;20513;-58
2023/07/07 03:44:58;;;;;;;8.90;8.30;;;19.20;17.40;;;;;;4972671;28;20422;-58
2023/07/07 03:47:24;;;;;;;9.83;9.00;;;19.20;17.30;;;;;;4972536;28;20418;-58
2023/07/07 03:49:50;;;;;;;9.50;8.90;;;19.20;17.30;;;;;;4972248;28;21021;-58
2023/07/07 03:52:16;;;;;;;9.60;9.10;;;19.20;17.30;;;;;;4972800;28;20186;-58
2023/07/07 03:54:42;;;;;;;9.17;8.67;;;19.20;17.40;;;;;;4972854;28;20410;-59
2023/07/07 03:57:10;;;;;;;8.60;8.00;;;19.30;17.40;;;;;;4972842;28;20487;-58
2023/07/07 03:59:36;;;;;;;9.70;9.20;;;19.30;17.30;;;;;;4972021;28;20207;-58
2023/07/07 04:02:03;;;;;;;10.10;9.40;;;19.20;17.30;;;;;;4972118;28;20501;-58
2023/07/07 04:04:29;;;;;;;9.93;9.37;;;19.20;17.30;;;;;;4973312;28;20414;-58
2023/07/07 04:06:58;;;;;;;9.40;8.80;;;19.20;17.20;;;;;;4972318;28;20410;-58
2023/07/07 04:09:25;;;;;;;9.60;9.10;;;19.20;17.10;;;;;;4988439;28;20178;-58
2023/07/07 04:11:51;;;;;;;9.70;9.10;;;19.20;17.20;;;;;;4972476;28;20425;-58
2023/07/07 04:14:18;;;;;;;10.73;10.03;;;19.20;17.30;;;;;;4972246;28;20509;-58
2023/07/07 04:16:44;;;;;;;10.33;9.67;;;19.10;17.00;;;;;;4971314;28;20429;-60
2023/07/07 04:19:10;;;;;;;10.17;9.47;;;19.10;16.80;;;;;;4973050;28;20406;-58
2023/07/07 04:21:36;;;;;;;9.47;8.93;;;19.20;16.90;;;;;;4971635;28;20616;-58
2023/07/07 04:24:03;;;;;;;10.03;9.43;;;19.20;16.90;;;;;;4971154;28;20410;-58
2023/07/07 04:26:31;;;;;;;10.33;9.63;;;19.20;16.90;;;;;;4971207;28;20434;-58
2023/07/07 04:28:59;;;;;;;9.97;9.27;;;19.20;16.90;;;;;;4971439;28;20449;-58
2023/07/07 04:31:26;;;;;;;9.47;8.97;;;19.20;16.90;;;;;;4987488;28;20496;-67
2023/07/07 04:33:53;;;;;;;8.60;8.20;;;19.10;17.00;;;;;;4991511;28;20435;-53
2023/07/07 04:36:19;;;;;;;9.20;8.70;;;19.10;16.80;;;;;;4991594;28;20413;-55
2023/07/07 04:38:45;;;;;;;10.23;9.63;;;19.10;16.80;;;;;;4991344;28;20444;-54
2023/07/07 04:41:13;;;;;;;10.03;9.40;;;19.10;16.80;;;;;;4991163;28;20511;-53
2023/07/07 04:43:45;;;;;;;9.57;8.97;;;18.80;17.70;;;;;;4990890;28;20428;-57
2023/07/07 04:46:16;;;;;;;8.63;8.23;;;18.90;17.60;;;;;;4991020;28;20787;-57
2023/07/07 04:48:42;;;;;;;10.40;9.73;;;19.00;17.50;;;;;;4990916;28;21082;-57
2023/07/07 04:51:10;;;;;;;9.83;9.30;;;18.80;17.30;;;;;;4991433;28;20424;-57
2023/07/07 04:53:37;;;;;;;10.27;9.47;;;18.70;17.60;;;;;;4990821;28;20444;-57
2023/07/07 04:56:15;;;;;;;10.00;9.40;;;18.80;17.90;;;;;;4991051;28;20425;-57
2023/07/07 04:58:42;;;;;;;9.57;9.00;;;18.80;17.70;;;;;;4990858;28;20420;-58
2023/07/07 05:01:19;;;;;;;10.00;9.50;;;19.00;17.60;;;;;;4990948;28;20511;-58
2023/07/07 05:03:49;;;;;;;10.17;9.67;;;18.90;17.20;;;;;;4990750;28;20489;-58
2023/07/07 05:06:15;;;;;;;9.43;8.93;;;18.90;17.50;;;;;;4991074;28;20425;-59
2023/07/07 05:08:42;;;;;;;10.07;9.37;;;18.80;17.30;;;;;;4992035;28;20409;-58
2023/07/07 05:11:13;;;;;;;9.70;9.10;;;18.80;17.80;;;;;;4990780;28;20201;-58
2023/07/07 05:13:39;;;;;;;10.47;9.80;;;18.80;17.50;;;;;;4990666;28;20421;-58
2023/07/07 05:16:09;;;;;;;11.50;10.43;;;18.80;17.30;;;;;;4991937;28;20412;-58
2023/07/07 05:18:35;;;;;;;10.03;9.50;;;18.70;17.70;;;;;;4989528;28;20798;-58
2023/07/07 05:21:01;;;;;;;10.37;9.67;;;18.60;17.90;;;;;;4990812;28;20464;-58
2023/07/07 05:23:27;;;;;;;9.30;8.80;;;18.70;18.20;;;;;;4990865;28;20507;-58
2023/07/07 05:25:53;;;;;;;10.87;10.10;;;18.80;17.80;;;;;;4990469;28;20508;-58
2023/07/07 05:28:19;;;;;;;10.60;9.90;;;18.90;17.30;;;;;;4990731;28;20181;-57
2023/07/07 05:30:45;;;;;;;10.00;9.30;;;18.90;17.40;;;;;;4990105;28;20178;-58
2023/07/07 05:33:11;;;;;;;10.03;9.43;;;18.90;17.20;;;;;;4990184;28;20413;-58
2023/07/07 05:35:49;;;;;;;10.47;9.70;;;18.90;17.40;;;;;;4990052;28;20214;-57
2023/07/07 05:38:16;;;;;;;11.30;9.87;;;19.00;17.30;;;;;;4989314;28;20432;-57
2023/07/07 05:40:43;;;;;;;10.60;9.80;;;19.10;17.10;;;;;;4989896;28;20461;-58
2023/07/07 05:43:09;;;;;;;10.00;9.40;;;19.20;17.40;;;;;;4988058;28;20417;-57
2023/07/07 05:45:34;;;;;;;10.87;10.20;;;19.30;16.90;;;;;;5009881;28;20427;-58
2023/07/07 05:48:00;;;;;;;12.33;11.43;;;19.40;17.20;;;;;;4991407;28;20186;-57
2023/07/07 05:50:26;;;;;;;12.00;10.87;;;19.40;17.30;;;;;;4988495;28;20206;-59
2023/07/07 05:52:52;;;;;;;12.13;11.07;;;19.30;17.60;;;;;;4990107;28;20182;-59
2023/07/07 05:55:30;;;;;;;11.53;10.40;;;19.30;17.80;;;;;;4989855;28;20192;-59
2023/07/07 05:57:56;;;;;;;11.37;10.67;;;19.30;17.90;;;;;;4989777;28;20240;-59
2023/07/07 06:00:23;;;;;;;12.50;11.60;;;19.40;18.00;;;;;;4987116;28;20462;-59
2023/07/07 06:02:48;;;;;;;11.20;10.50;;;19.40;18.30;;;;;;4990224;28;20413;-61
2023/07/07 06:05:16;;;;;;;11.13;10.17;;;19.40;18.00;;;;;;5009210;28;20483;-58
2023/07/07 06:07:42;;;;;;;13.30;10.60;;;19.40;18.10;;;;;;5003444;28;20507;-53
2023/07/07 06:10:10;;;;;;;10.40;9.50;;;19.40;18.10;;;;;;5013163;28;20515;-55
2023/07/07 06:12:36;;;;;;;11.80;10.70;;;19.40;18.20;;;;;;4996876;28;20186;-54
2023/07/07 06:15:03;;;;;;;11.87;11.07;;;19.40;18.30;;;;;;4994040;28;20436;-53
2023/07/07 06:17:29;;;;;;;11.10;10.30;;;19.50;18.00;;;;;;5002446;28;20799;-60
2023/07/07 06:19:55;;;;;;;12.77;11.07;;;19.40;18.10;;;;;;4993601;28;20464;-57
2023/07/07 06:22:20;;;;;;;10.53;9.73;;;19.50;18.00;;;;;;4993689;28;20666;-57
2023/07/07 06:24:46;;;;;;;10.10;9.33;;;19.50;18.10;;;;;;4993582;28;20181;-57
2023/07/07 06:27:12;;;;;;;12.10;10.87;;;19.50;18.10;;;;;;5006396;28;20183;-60
2023/07/07 06:29:38;;;;;;;10.73;10.13;;;19.60;18.10;;;;;;4973961;28;20186;-58
2023/07/07 06:32:04;;;;;;;11.30;10.40;;;19.60;18.20;;;;;;4997745;28;20193;-56
2023/07/07 06:34:29;;;;;;;10.57;9.87;;;19.70;18.30;;;;;;4993578;28;20413;-56
2023/07/07 06:36:55;;;;;;;11.03;10.30;;;19.80;17.60;;;;;;4993302;28;20456;-56
2023/07/07 06:39:20;;;;;;;10.90;10.13;;;19.90;17.50;;;;;;5009405;28;20204;-56
2023/07/07 06:41:46;;;;;;;11.20;10.50;;;20.00;17.60;;;;;;4991370;28;20244;-56
2023/07/07 06:44:12;;;;;;;12.27;11.40;;;20.00;17.50;;;;;;4998295;28;20655;-55
2023/07/07 06:46:37;;;;;;;10.97;10.17;;;20.10;17.20;;;;;;4992680;28;20192;-55
2023/07/07 06:49:04;;;;;;;10.37;9.77;;;20.10;16.80;;;;;;4989120;28;20186;-59
2023/07/07 06:51:30;;;;;;;10.00;9.23;;;20.20;16.90;;;;;;4973750;28;20179;-59
2023/07/07 06:53:56;;;;;;;11.37;10.50;;;20.20;16.90;;;;;;4997146;28;20416;-59
2023/07/07 06:56:22;;;;;;;11.33;10.60;;;20.30;17.20;;;;;;5000521;28;20418;-59
2023/07/07 06:58:47;;;;;;;10.93;10.23;;;20.30;16.90;;;;;;4972988;28;20178;-59
2023/07/07 07:01:13;;;;;;;10.87;10.10;;;20.40;16.60;;;;;;5000594;28;20237;-59
2023/07/07 07:03:40;;;;;;;11.93;11.00;;;20.50;16.60;;;;;;4988220;28;20352;-58
2023/07/07 07:06:07;;;;;;;11.70;10.80;;;20.60;16.80;;;;;;4989554;28;20943;-58
2023/07/07 07:08:32;;;;;;;10.53;9.63;;;20.60;16.60;;;;;;4973070;28;20464;-58
2023/07/07 07:10:58;;;;;;;10.53;9.77;;;20.60;16.50;;;;;;4973068;28;21497;-59
2023/07/07 07:13:23;;;;;;;10.57;9.80;;;20.70;16.40;;;;;;4983964;28;20732;-59
2023/07/07 07:15:50;;;;;;;11.97;11.13;;;20.90;16.00;;;;;;4999784;28;20638;-57
2023/07/07 07:18:15;;;;;;;11.20;10.50;;;21.00;15.80;;;;;;4988981;28;20245;-58
2023/07/07 07:20:41;;;;;;;11.37;10.30;;;21.00;15.80;;;;;;4972775;28;20462;-60
2023/07/07 07:23:06;;;;;;;11.00;10.30;;;21.10;15.40;;;;;;4989103;28;20175;-59
2023/07/07 07:25:32;;;;;;;11.23;10.17;;;21.20;15.10;;;;;;4992460;28;20193;-59
2023/07/07 07:27:58;;;;;;;10.83;10.20;;;21.20;14.70;;;;;;4972593;28;20861;-59
2023/07/07 07:30:23;;;;;;;10.60;9.90;;;21.40;14.80;;;;;;4998003;28;20211;-59
2023/07/07 07:32:49;;;;;;;10.60;10.00;;;21.40;14.60;;;;;;4988765;28;20656;-60
2023/07/07 07:35:15;;;;;;;11.10;10.30;;;21.50;14.50;;;;;;4983531;28;20214;-59
2023/07/07 07:37:40;;;;;;;10.90;10.10;;;21.50;14.30;;;;;;4992047;28;20181;-59
2023/07/07 07:40:07;;;;;;;11.07;10.27;;;21.50;14.60;;;;;;4991994;28;20519;-59
2023/07/07 07:42:32;;;;;;;11.43;10.67;;;21.60;14.40;;;;;;4991956;28;20174;-59
2023/07/07 07:44:58;;;;;;;10.73;10.00;;;21.70;14.80;;;;;;5003090;28;20425;-58
2023/07/07 07:47:23;;;;;;;10.57;9.87;;;21.70;14.70;;;;;;4988724;28;20175;-58
2023/07/07 07:49:49;;;;;;;9.40;8.90;;;21.70;14.70;;;;;;4972235;28;20190;-58
2023/07/07 07:52:15;;;;;;;10.40;9.63;;;21.90;14.40;;;;;;4972496;28;20217;-59
2023/07/07 07:54:42;;;;;;;9.30;8.80;;;22.20;14.30;;;;;;4972465;28;20178;-60
2023/07/07 07:57:09;;;;;;;9.90;9.20;;;22.30;13.30;;;;;;4988758;28;20541;-59
2023/07/07 07:59:35;;;;;;;11.60;10.80;;;22.50;13.20;;;;;;4985915;28;20456;-59
2023/07/07 08:02:00;;;;;;;10.67;9.87;;;22.60;13.00;;;;;;5004031;28;20467;-60
2023/07/07 08:04:26;;;;;;;9.30;8.60;;;22.60;13.00;;;;;;4991755;28;20508;-59
2023/07/07 08:06:53;;;;;;;11.20;9.37;;;22.70;13.10;;;;;;4991651;28;20178;-58
2023/07/07 08:09:19;;;;;;;8.90;8.20;;;22.80;12.90;;;;;;4991606;28;20652;-59
2023/07/07 08:11:48;;;;;;;9.17;8.37;;;22.90;12.80;;;;;;4991325;28;20509;-59
2023/07/07 08:14:14;;;;;;;9.63;8.93;;;23.00;12.40;;;;;;4991464;28;20933;-59
2023/07/07 08:16:39;;;;;;;10.60;9.53;;;23.10;12.20;;;;;;4991533;28;20460;-58
2023/07/07 08:19:06;;;;;;;9.37;8.87;;;23.10;12.30;;;;;;4987941;28;20572;-58
2023/07/07 08:21:31;;;;;;;8.90;8.30;;;23.20;12.40;;;;;;5005507;28;20272;-58
2023/07/07 08:23:57;;;;;;;9.67;9.10;;;23.30;12.30;;;;;;4991244;28;20507;-59
2023/07/07 08:26:23;;;;;;;9.60;8.90;;;23.60;11.70;;;;;;4991285;28;20174;-59
2023/07/07 08:28:48;;;;;;;9.60;9.00;;;23.70;11.50;;;;;;4998949;28;20177;-59
2023/07/07 08:31:14;;;;;;;8.80;8.30;;;23.70;12.00;;;;;;4992737;28;20192;-59
2023/07/07 08:33:43;;;;;;;8.33;7.90;;;23.90;11.30;;;;;;4987787;28;20277;-59
2023/07/07 08:36:09;;;;;;;8.30;7.80;;;24.10;10.90;;;;;;4971787;28;20500;-58
2023/07/07 08:38:35;;;;;;;8.87;8.37;;;24.20;10.50;;;;;;4972843;28;20414;-59
2023/07/07 08:41:01;;;;;;;7.60;7.20;;;24.30;10.30;;;;;;4971696;28;20214;-58
2023/07/07 08:43:29;;;;;;;9.20;8.53;;;24.40;10.30;;;;;;4973766;28;20182;-59
2023/07/07 08:46:17;;;;;;;8.60;8.10;;;24.30;10.20;;;;;;4990997;28;20205;-58
2023/07/07 08:48:59;;;;;;;10.17;9.47;;;24.30;10.50;;;;;;4990614;28;20475;-58
2023/07/07 08:51:36;;;;;;;9.27;8.57;;;24.60;10.50;;;;;;4991217;28;20417;-59
2023/07/07 08:54:32;;;;;;;9.17;8.67;;;24.80;10.10;;;;;;4990859;28;20431;-60
2023/07/07 08:57:10;;;;;;;10.10;9.40;;;25.00;9.90;;;;;;4990693;28;20491;-58
2023/07/07 08:59:54;;;;;;;9.80;9.30;;;24.90;9.80;;;;;;4990825;28;20460;-59
2023/07/07 09:02:20;;;;;;;10.43;9.67;;;24.90;9.70;;;;;;4989756;28;20985;-63
2023/07/07 09:05:18;;;;;;;10.70;9.97;;;24.90;10.10;;;;;;4989282;28;20413;-59
2023/07/07 09:08:08;;;;;;;10.73;9.93;;;24.80;10.40;;;;;;4989086;28;20520;-58
2023/07/07 09:10:40;;;;;;;9.97;9.27;;;24.70;10.90;;;;;;4989350;28;20926;-58
2023/07/07 09:13:28;;;;;;;9.80;9.30;;;24.80;10.10;;;;;;4989521;28;20433;-60
2023/07/07 09:16:24;;;;;;;9.77;9.17;;;24.90;9.90;;;;;;4989747;28;20926;-57
2023/07/07 09:19:00;;;;;;;9.57;8.97;;;25.00;9.70;;;;;;4998727;28;20475;-56
2023/07/07 09:21:58;;;;;;;10.77;9.80;;;25.30;7.40;;;;;;5004418;28;20468;-55
2023/07/07 09:24:39;;;;;;;11.40;10.20;;;25.60;6.60;;;;;;4996879;28;20749;-54
2023/07/07 09:27:16;;;;;;;10.57;9.97;;;25.70;6.20;;;;;;4990522;28;20925;-55
2023/07/07 09:29:42;;;;;;;10.73;9.93;;;25.80;5.30;;;;;;4990317;28;20425;-55
2023/07/07 09:32:11;;;;;;;9.77;9.27;;;25.90;5.40;;;;;;4990569;28;20417;-52
2023/07/07 09:34:37;;;;;;;12.00;11.00;;;26.00;5.90;;;;;;4990677;28;20433;-55
2023/07/07 09:37:13;;;;;;;10.60;9.80;;;26.00;6.10;;;;;;4990885;28;20828;-56
2023/07/07 09:39:50;;;;;;;10.43;9.83;;;26.10;4.00;;;;;;4992416;28;20232;-54
2023/07/07 09:42:40;;;;;;;13.80;10.77;;;26.50;2.40;;;;;;5000389;28;20424;-55
2023/07/07 09:45:43;;;;;;;10.10;9.37;;;26.50;3.30;;;;;;4994597;28;21077;-55
2023/07/07 09:48:33;;;;;;;10.87;10.07;;;26.50;2.70;;;;;;4983733;28;20416;-55
2023/07/07 09:51:27;;;;;;;10.23;9.53;;;26.70;2.30;;;;;;4994505;28;20495;-55
2023/07/07 09:53:54;;;;;;;11.37;9.73;;;27.00;1.50;;;;;;4979076;28;20421;-55
2023/07/07 09:56:31;;;;;;;10.97;10.20;;;27.10;2.10;;;;;;4995903;28;20409;-55
2023/07/07 09:59:06;;;;;;;10.03;9.23;;;27.20;2.10;;;;;;4994354;28;20425;-56
2023/07/07 10:01:38;;;;;;;10.17;9.33;;;27.30;1.90;;;;;;4991376;28;20433;-55
2023/07/07 10:04:13;;;;;;;9.63;9.00;;;27.40;1.60;;;;;;4973824;28;20421;-54
2023/07/07 10:06:53;;;;;;;10.40;9.70;;;27.60;1.00;;;;;;4972649;28;20418;-59
2023/07/07 10:09:19;;;;;;;10.67;9.80;;;27.90;1.00;;;;;;4982252;28;20477;-59
2023/07/07 10:11:45;;;;;;;11.70;10.90;;;27.90;1.00;;;;;;5007394;28;20853;-58
2023/07/07 10:14:15;;;;;;;11.30;10.50;;;28.00;1.00;;;;;;4993270;28;20181;-60
2023/07/07 10:17:06;;;;;;;12.27;11.10;;;28.10;1.00;;;;;;4989964;28;20508;-58
2023/07/07 10:19:53;;;;;;;10.50;9.70;;;28.20;1.00;;;;;;4978598;28;20515;-58
2023/07/07 10:22:20;;;;;;;10.50;9.70;;;28.30;1.00;;;;;;4998888;28;20560;-58
2023/07/07 10:24:46;;;;;;;12.20;11.40;;;28.40;1.00;;;;;;5009765;28;20508;-58
2023/07/07 10:27:15;;;;;;;10.73;9.83;;;28.50;1.00;;;;;;4993611;28;20568;-60
2023/07/07 10:29:42;;;;;;;10.83;10.13;;;28.60;1.00;;;;;;4992766;28;20181;-59
2023/07/07 10:32:14;;;;;;;10.73;9.83;;;28.60;1.00;;;;;;4993460;28;20508;-59
2023/07/07 10:34:45;;;;;;;11.33;10.53;;;28.60;1.00;;;;;;4997693;28;20435;-58
2023/07/07 10:37:18;;;;;;;11.83;11.03;;;28.70;1.00;;;;;;4993395;28;20421;-58
2023/07/07 10:39:48;;;;;;;11.70;10.63;;;28.60;1.00;;;;;;5006611;28;20482;-57
2023/07/07 10:42:13;;;;;;;16.40;14.97;;;28.60;1.00;;;;;;5012632;28;20503;-59
2023/07/07 10:44:39;;;;;;;11.57;10.67;;;28.60;1.00;;;;;;5012897;28;20548;-58
2023/07/07 10:47:05;;;;;;;11.87;10.97;;;28.80;1.00;;;;;;4996568;28;20184;-60
2023/07/07 10:49:31;;;;;;;12.40;11.40;;;28.80;1.00;;;;;;4999271;28;20201;-59
2023/07/07 10:52:35;;;;;;;12.57;11.70;;;29.20;1.00;;;;;;4997012;28;20553;-59
2023/07/07 10:55:18;;;;;;;12.83;11.90;;;29.20;1.00;;;;;;4984393;28;20435;-59
2023/07/07 10:58:13;;;;;;;13.27;12.20;;;29.00;1.00;;;;;;4995853;28;20438;-59
2023/07/07 11:01:08;;;;;;;13.33;12.23;;;29.10;1.00;;;;;;4992045;28;20508;-60
2023/07/07 11:04:19;;;;;;;11.07;10.17;;;29.00;1.00;;;;;;4989723;28;20512;-59
2023/07/07 11:07:13;;;;;;;13.77;12.67;;;29.00;1.00;;;;;;5007697;28;20484;-58
2023/07/07 11:10:01;;;;;;;12.20;11.30;;;29.00;1.00;;;;;;4992674;28;20425;-59
2023/07/07 11:12:47;;;;;;;11.87;11.07;;;29.00;1.00;;;;;;4992628;28;20742;-59
2023/07/07 11:15:40;;;;;;;12.70;11.50;;;28.90;1.00;;;;;;5001905;28;20496;-59
2023/07/07 11:18:30;;;;;;;12.77;11.60;;;28.90;1.00;;;;;;4992525;28;20439;-58
2023/07/07 11:21:26;;;;;;;13.33;12.20;;;29.20;1.00;;;;;;4992596;28;20465;-59
2023/07/07 11:24:18;;;;;;;13.60;12.30;;;29.20;1.00;;;;;;4982198;28;20429;-59
2023/07/07 11:26:50;;;;;;;12.93;11.70;;;29.30;1.00;;;;;;4992556;28;20472;-58
2023/07/07 11:29:23;;;;;;;12.27;11.37;;;29.20;1.00;;;;;;4992281;28;20427;-58
2023/07/07 11:31:59;;;;;;;12.50;11.53;;;29.20;1.00;;;;;;4994946;28;20421;-60
2023/07/07 11:34:36;;;;;;;12.40;11.30;;;29.20;1.00;;;;;;5008842;28;20440;-59
2023/07/07 11:37:22;;;;;;;15.43;11.67;;;29.20;1.00;;;;;;5005251;28;20936;-59
2023/07/07 11:39:59;;;;;;;14.33;12.93;;;29.00;1.00;;;;;;5005238;28;20469;-59
2023/07/07 11:43:00;;;;;;;12.30;11.40;;;28.90;1.00;;;;;;4997408;28;20413;-59
2023/07/07 11:45:28;;;;;;;11.90;11.00;;;28.80;1.00;;;;;;4992014;28;20934;-58
2023/07/07 11:48:19;;;;;;;12.93;12.00;;;28.90;1.00;;;;;;4991083;28;20422;-59
2023/07/07 11:51:01;;;;;;;12.07;11.00;;;29.00;1.00;;;;;;5008208;28;20960;-58
2023/07/07 11:53:42;;;;;;;12.10;11.10;;;29.00;1.00;;;;;;4990727;28;20430;-58
2023/07/07 11:56:16;;;;;;;11.80;10.90;;;29.20;1.00;;;;;;4973821;28;20414;-59
2023/07/07 11:59:06;;;;;;;11.83;10.93;;;29.40;1.00;;;;;;4972206;28;20887;-59
2023/07/07 12:01:37;;;;;;;12.30;11.40;;;29.50;1.00;;;;;;4981305;28;20465;-59
2023/07/07 12:04:39;;;;;;;11.77;10.83;;;29.50;1.00;;;;;;4991192;28;20433;-59
2023/07/07 12:07:31;;;;;;;13.27;12.17;;;29.40;1.00;;;;;;4973158;28;20519;-59
2023/07/07 12:10:02;;;;;;;12.10;11.27;;;29.40;1.00;;;;;;4992097;28;20539;-59
2023/07/07 12:12:39;;;;;;;13.23;11.27;;;29.10;1.00;;;;;;4990554;28;20417;-59
2023/07/07 12:15:14;;;;;;;12.73;11.70;;;28.90;1.00;;;;;;4989972;28;20519;-58
2023/07/07 12:18:02;;;;;;;12.47;11.53;;;29.00;1.00;;;;;;4990836;28;20891;-59
2023/07/07 12:20:32;;;;;;;11.93;11.03;;;29.00;1.00;;;;;;5005914;28;20845;-60
2023/07/07 12:23:01;;;;;;;11.50;10.77;;;28.90;1.00;;;;;;4990070;28;21213;-59
2023/07/07 12:25:29;;;;;;;11.60;10.50;;;28.90;1.00;;;;;;4990746;28;20796;-59
2023/07/07 12:27:55;;;;;;;12.20;11.07;;;29.00;1.00;;;;;;4990439;28;20910;-60
2023/07/07 12:30:42;;;;;;;13.10;11.70;;;29.00;1.00;;;;;;4991396;28;20425;-60
2023/07/07 12:33:09;;;;;;;11.90;11.00;;;29.30;1.00;;;;;;4992738;28;20449;-60
2023/07/07 12:35:52;;;;;;;12.13;11.20;;;29.50;1.00;;;;;;4991541;28;20456;-61
2023/07/07 12:38:25;;;;;;;11.97;11.07;;;29.50;1.00;;;;;;4991323;28;20493;-61
2023/07/07 12:40:55;;;;;;;12.30;11.50;;;29.50;1.00;;;;;;4991288;28;21035;-60
2023/07/07 12:43:34;;;;;;;11.70;10.70;;;29.40;1.00;;;;;;4991431;28;20479;-61
2023/07/07 12:45:59;;;;;;;12.27;11.27;;;29.10;1.00;;;;;;4991358;28;20993;-61
2023/07/07 12:48:28;;;;;;;12.60;11.67;;;28.90;1.00;;;;;;5007354;28;20505;-61
2023/07/07 12:51:00;;;;;;;13.37;12.27;;;28.60;1.00;;;;;;4991352;28;20208;-61
2023/07/07 12:53:35;;;;;;;11.13;10.33;;;28.50;1.00;;;;;;4991379;28;20532;-61
2023/07/07 12:56:12;;;;;;;11.73;10.83;;;28.60;1.00;;;;;;4991222;28;20457;-61
2023/07/07 12:58:47;;;;;;;11.50;10.60;;;28.80;1.00;;;;;;4991027;28;20423;-61
2023/07/07 13:01:15;;;;;;;10.80;10.00;;;28.70;1.00;;;;;;4991226;28;20478;-60